sensor_id;sensor_type;location;lat;lon;timestamp;pressure;altitude;pressure_sealevel;temperature;humidity
2711;BME280;20721;47.402;8.550;2023-06-19T00:00:12;95841;;;23.63;46.66
2711;BME280;20721;47.402;8.550;2023-06-19T00:01:08;95843;;;23.64;46.73
2711;BME280;20721;47.402;8.550;2023-06-19T00:02:08;95845;;;23.65;46.63
2711;BME280;20721;47.402;8.550;2023-06-19T00:03:08;95844;;;23.63;46.75
2711;BME280;20721;47.402;8.550;2023-06-19T00:04:09;95844;;;23.64;46.81
2711;BME280;20721;47.402;8.550;2023-06-19T00:05:08;95845;;;23.62;46.81
2711;BME280;20721;47.402;8.550;2023-06-19T00:06:08;95844;;;23.53;47.02
2711;BME280;20721;47.402;8.550;2023-06-19T00:07:08;95847;;;23.49;47.13
2711;BME280;20721;47.402;8.550;2023-06-19T00:08:08;95852;;;23.43;47.30
2711;BME280;20721;47.402;8.550;2023-06-19T00:09:08;95856;;;23.32;47.61
2711;BME280;20721;47.402;8.550;2023-06-19T00:10:08;95854;;;23.25;47.75
2711;BME280;20721;47.402;8.550;2023-06-19T00:11:08;95853;;;23.23;47.99
2711;BME280;20721;47.402;8.550;2023-06-19T00:12:08;95855;;;23.18;48.18
2711;BME280;20721;47.402;8.550;2023-06-19T00:13:08;95855;;;23.13;48.33
2711;BME280;20721;47.402;8.550;2023-06-19T00:14:08;95850;;;23.10;48.39
2711;BME280;20721;47.402;8.550;2023-06-19T00:15:09;95854;;;23.07;48.46
2711;BME280;20721;47.402;8.550;2023-06-19T00:16:08;95854;;;23.06;48.49
2711;BME280;20721;47.402;8.550;2023-06-19T00:17:08;95855;;;23.04;48.21
2711;BME280;20721;47.402;8.550;2023-06-19T00:18:10;95853;;;23.03;48.25
2711;BME280;20721;47.402;8.550;2023-06-19T00:19:08;95854;;;23.04;48.05
2711;BME280;20721;47.402;8.550;2023-06-19T00:20:09;95857;;;23.06;47.87
2711;BME280;20721;47.402;8.550;2023-06-19T00:21:08;95857;;;23.09;47.72
2711;BME280;20721;47.402;8.550;2023-06-19T00:22:08;95860;;;23.11;47.62
2711;BME280;20721;47.402;8.550;2023-06-19T00:23:11;95859;;;23.13;47.55
2711;BME280;20721;47.402;8.550;2023-06-19T00:24:08;95860;;;23.16;47.54
2711;BME280;20721;47.402;8.550;2023-06-19T00:25:08;95861;;;23.17;47.42
2711;BME280;20721;47.402;8.550;2023-06-19T00:26:08;95862;;;23.20;47.33
2711;BME280;20721;47.402;8.550;2023-06-19T00:27:08;95863;;;23.22;47.38
2711;BME280;20721;47.402;8.550;2023-06-19T00:28:11;95859;;;23.25;47.44
2711;BME280;20721;47.402;8.550;2023-06-19T00:29:08;95865;;;23.27;47.78
2711;BME280;20721;47.402;8.550;2023-06-19T00:30:08;95865;;;23.30;47.88
2711;BME280;20721;47.402;8.550;2023-06-19T00:31:08;95864;;;23.33;47.94
2711;BME280;20721;47.402;8.550;2023-06-19T00:32:08;95867;;;23.35;48.15
2711;BME280;20721;47.402;8.550;2023-06-19T00:33:08;95870;;;23.37;48.22
2711;BME280;20721;47.402;8.550;2023-06-19T00:34:08;95870;;;23.39;48.22
2711;BME280;20721;47.402;8.550;2023-06-19T00:35:08;95872;;;23.41;48.07
2711;BME280;20721;47.402;8.550;2023-06-19T00:36:08;95875;;;23.45;47.97
2711;BME280;20721;47.402;8.550;2023-06-19T00:37:09;95879;;;23.44;47.56
2711;BME280;20721;47.402;8.550;2023-06-19T00:41:08;95878;;;23.43;47.62
2711;BME280;20721;47.402;8.550;2023-06-19T00:42:08;95878;;;23.44;47.52
2711;BME280;20721;47.402;8.550;2023-06-19T00:43:08;95875;;;23.43;47.62
2711;BME280;20721;47.402;8.550;2023-06-19T00:44:08;95876;;;23.44;47.83
2711;BME280;20721;47.402;8.550;2023-06-19T00:45:08;95879;;;23.45;47.62
2711;BME280;20721;47.402;8.550;2023-06-19T00:46:08;95880;;;23.47;47.99
2711;BME280;20721;47.402;8.550;2023-06-19T00:47:08;95885;;;23.51;48.26
2711;BME280;20721;47.402;8.550;2023-06-19T00:48:08;95888;;;23.55;48.41
2711;BME280;20721;47.402;8.550;2023-06-19T00:49:08;95887;;;23.58;48.17
2711;BME280;20721;47.402;8.550;2023-06-19T00:50:08;95891;;;23.61;48.29
2711;BME280;20721;47.402;8.550;2023-06-19T00:51:08;95900;;;23.64;48.10
2711;BME280;20721;47.402;8.550;2023-06-19T00:52:08;95907;;;23.67;47.51
2711;BME280;20721;47.402;8.550;2023-06-19T00:53:08;95914;;;23.68;46.48
2711;BME280;20721;47.402;8.550;2023-06-19T00:54:08;95919;;;23.73;46.52
2711;BME280;20721;47.402;8.550;2023-06-19T00:55:09;95921;;;23.77;47.81
2711;BME280;20721;47.402;8.550;2023-06-19T00:56:08;95915;;;23.80;47.97
2711;BME280;20721;47.402;8.550;2023-06-19T00:57:08;95912;;;23.81;47.97
2711;BME280;20721;47.402;8.550;2023-06-19T00:58:08;95907;;;23.85;48.17
2711;BME280;20721;47.402;8.550;2023-06-19T00:59:11;95902;;;23.87;47.99
2711;BME280;20721;47.402;8.550;2023-06-19T01:03:08;95913;;;23.85;48.06
2711;BME280;20721;47.402;8.550;2023-06-19T01:04:08;95911;;;23.82;47.97
2711;BME280;20721;47.402;8.550;2023-06-19T01:05:08;95913;;;23.80;48.12
2711;BME280;20721;47.402;8.550;2023-06-19T01:06:10;95911;;;23.78;48.04
2711;BME280;20721;47.402;8.550;2023-06-19T01:07:09;95911;;;23.75;48.08
2711;BME280;20721;47.402;8.550;2023-06-19T01:09:09;95910;;;23.69;48.10
2711;BME280;20721;47.402;8.550;2023-06-19T01:10:11;95914;;;23.68;48.18
2711;BME280;20721;47.402;8.550;2023-06-19T01:13:14;95917;;;23.66;48.26
2711;BME280;20721;47.402;8.550;2023-06-19T01:14:09;95919;;;23.63;48.21
2711;BME280;20721;47.402;8.550;2023-06-19T01:15:08;95918;;;23.57;48.34
2711;BME280;20721;47.402;8.550;2023-06-19T01:16:08;95921;;;23.50;48.47
2711;BME280;20721;47.402;8.550;2023-06-19T01:17:08;95917;;;23.41;48.74
2711;BME280;20721;47.402;8.550;2023-06-19T01:18:11;95915;;;23.29;48.80
2711;BME280;20721;47.402;8.550;2023-06-19T01:19:09;95910;;;23.18;49.01
2711;BME280;20721;47.402;8.550;2023-06-19T01:20:11;95913;;;23.07;49.12
2711;BME280;20721;47.402;8.550;2023-06-19T01:21:09;95915;;;22.98;49.17
2711;BME280;20721;47.402;8.550;2023-06-19T01:22:08;95915;;;22.91;49.25
2711;BME280;20721;47.402;8.550;2023-06-19T01:23:08;95913;;;22.82;49.33
2711;BME280;20721;47.402;8.550;2023-06-19T01:24:08;95907;;;22.77;49.40
2711;BME280;20721;47.402;8.550;2023-06-19T01:25:08;95903;;;22.74;49.42
2711;BME280;20721;47.402;8.550;2023-06-19T01:26:08;95904;;;22.75;49.48
2711;BME280;20721;47.402;8.550;2023-06-19T01:27:08;95906;;;22.76;49.38
2711;BME280;20721;47.402;8.550;2023-06-19T01:28:10;95911;;;22.78;49.30
2711;BME280;20721;47.402;8.550;2023-06-19T01:29:08;95910;;;22.80;49.27
2711;BME280;20721;47.402;8.550;2023-06-19T01:30:09;95910;;;22.86;49.11
2711;BME280;20721;47.402;8.550;2023-06-19T01:31:11;95917;;;22.96;48.85
2711;BME280;20721;47.402;8.550;2023-06-19T01:32:10;95920;;;23.05;48.32
2711;BME280;20721;47.402;8.550;2023-06-19T01:33:09;95921;;;23.14;48.44
2711;BME280;20721;47.402;8.550;2023-06-19T01:34:08;95922;;;23.24;48.28
2711;BME280;20721;47.402;8.550;2023-06-19T01:35:09;95922;;;23.33;47.94
2711;BME280;20721;47.402;8.550;2023-06-19T01:36:08;95923;;;23.37;47.43
2711;BME280;20721;47.402;8.550;2023-06-19T01:38:08;95927;;;23.35;47.17
2711;BME280;20721;47.402;8.550;2023-06-19T01:39:09;95928;;;23.34;47.10
2711;BME280;20721;47.402;8.550;2023-06-19T01:40:09;95925;;;23.36;46.88
2711;BME280;20721;47.402;8.550;2023-06-19T01:41:08;95929;;;23.39;46.85
2711;BME280;20721;47.402;8.550;2023-06-19T01:42:11;95932;;;23.45;46.70
2711;BME280;20721;47.402;8.550;2023-06-19T01:43:08;95936;;;23.51;46.62
2711;BME280;20721;47.402;8.550;2023-06-19T01:44:08;95946;;;23.57;46.63
2711;BME280;20721;47.402;8.550;2023-06-19T01:45:08;95948;;;23.59;46.60
2711;BME280;20721;47.402;8.550;2023-06-19T01:46:08;95950;;;23.61;46.55
2711;BME280;20721;47.402;8.550;2023-06-19T01:47:09;95956;;;23.64;46.58
2711;BME280;20721;47.402;8.550;2023-06-19T01:48:08;95964;;;23.67;46.51
2711;BME280;20721;47.402;8.550;2023-06-19T01:49:09;95971;;;23.71;46.47
2711;BME280;20721;47.402;8.550;2023-06-19T01:50:08;95976;;;23.72;46.43
2711;BME280;20721;47.402;8.550;2023-06-19T01:51:08;95975;;;23.69;46.32
2711;BME280;20721;47.402;8.550;2023-06-19T01:52:08;95982;;;23.70;46.38
2711;BME280;20721;47.402;8.550;2023-06-19T01:53:08;95983;;;23.68;46.39
2711;BME280;20721;47.402;8.550;2023-06-19T01:54:08;95983;;;23.66;46.28
2711;BME280;20721;47.402;8.550;2023-06-19T01:56:08;95989;;;23.67;46.32
2711;BME280;20721;47.402;8.550;2023-06-19T01:57:08;95989;;;23.68;46.30
2711;BME280;20721;47.402;8.550;2023-06-19T01:58:08;95990;;;23.66;46.31
2711;BME280;20721;47.402;8.550;2023-06-19T01:59:08;95993;;;23.67;46.09
2711;BME280;20721;47.402;8.550;2023-06-19T02:00:10;95999;;;23.70;46.39
2711;BME280;20721;47.402;8.550;2023-06-19T02:01:08;96010;;;23.68;46.92
2711;BME280;20721;47.402;8.550;2023-06-19T02:02:08;96014;;;23.69;46.51
2711;BME280;20721;47.402;8.550;2023-06-19T02:03:08;96016;;;23.71;46.97
2711;BME280;20721;47.402;8.550;2023-06-19T02:04:08;96019;;;23.67;47.43
2711;BME280;20721;47.402;8.550;2023-06-19T02:05:08;96017;;;23.60;47.39
2711;BME280;20721;47.402;8.550;2023-06-19T02:06:08;96019;;;23.58;47.65
2711;BME280;20721;47.402;8.550;2023-06-19T02:09:08;96012;;;23.55;47.67
2711;BME280;20721;47.402;8.550;2023-06-19T02:10:08;96017;;;23.52;48.34
2711;BME280;20721;47.402;8.550;2023-06-19T02:11:08;96014;;;23.47;48.32
2711;BME280;20721;47.402;8.550;2023-06-19T02:12:08;96013;;;23.43;48.93
2711;BME280;20721;47.402;8.550;2023-06-19T02:13:08;96015;;;23.38;49.40
2711;BME280;20721;47.402;8.550;2023-06-19T02:14:09;96022;;;23.34;49.48
2711;BME280;20721;47.402;8.550;2023-06-19T02:15:08;96022;;;23.26;51.31
2711;BME280;20721;47.402;8.550;2023-06-19T02:16:08;96018;;;23.22;51.85
2711;BME280;20721;47.402;8.550;2023-06-19T02:18:08;96012;;;23.19;53.53
2711;BME280;20721;47.402;8.550;2023-06-19T02:19:09;96020;;;23.17;53.65
2711;BME280;20721;47.402;8.550;2023-06-19T02:20:09;96020;;;23.06;57.92
2711;BME280;20721;47.402;8.550;2023-06-19T02:21:08;96021;;;22.96;57.99
2711;BME280;20721;47.402;8.550;2023-06-19T02:22:08;96026;;;22.84;60.17
2711;BME280;20721;47.402;8.550;2023-06-19T02:23:08;96029;;;22.79;60.93
2711;BME280;20721;47.402;8.550;2023-06-19T02:24:08;96029;;;22.73;61.14
2711;BME280;20721;47.402;8.550;2023-06-19T02:25:08;96032;;;22.59;60.12
2711;BME280;20721;47.402;8.550;2023-06-19T02:26:08;96034;;;22.52;60.31
2711;BME280;20721;47.402;8.550;2023-06-19T02:27:08;96037;;;22.48;59.95
2711;BME280;20721;47.402;8.550;2023-06-19T02:28:09;96040;;;22.44;59.98
2711;BME280;20721;47.402;8.550;2023-06-19T02:29:08;96039;;;22.42;60.51
2711;BME280;20721;47.402;8.550;2023-06-19T02:30:08;96038;;;22.41;60.38
2711;BME280;20721;47.402;8.550;2023-06-19T02:31:08;96032;;;22.39;60.90
2711;BME280;20721;47.402;8.550;2023-06-19T02:32:08;96031;;;22.34;60.63
2711;BME280;20721;47.402;8.550;2023-06-19T02:33:08;96024;;;22.28;61.47
2711;BME280;20721;47.402;8.550;2023-06-19T02:34:09;96022;;;22.20;61.60
2711;BME280;20721;47.402;8.550;2023-06-19T02:35:09;96025;;;22.16;62.12
2711;BME280;20721;47.402;8.550;2023-06-19T02:36:08;96033;;;22.12;63.51
2711;BME280;20721;47.402;8.550;2023-06-19T02:37:08;96036;;;22.04;61.83
2711;BME280;20721;47.402;8.550;2023-06-19T02:38:08;96039;;;21.91;61.92
2711;BME280;20721;47.402;8.550;2023-06-19T02:39:08;96045;;;21.84;62.29
2711;BME280;20721;47.402;8.550;2023-06-19T02:40:10;96045;;;21.81;63.88
2711;BME280;20721;47.402;8.550;2023-06-19T02:42:08;96047;;;21.77;63.30
2711;BME280;20721;47.402;8.550;2023-06-19T02:43:08;96049;;;21.71;62.85
2711;BME280;20721;47.402;8.550;2023-06-19T02:44:08;96048;;;21.67;63.02
2711;BME280;20721;47.402;8.550;2023-06-19T02:45:08;96050;;;21.65;63.03
2711;BME280;20721;47.402;8.550;2023-06-19T02:46:11;96050;;;21.60;63.05
2711;BME280;20721;47.402;8.550;2023-06-19T02:48:09;96051;;;21.61;63.84
2711;BME280;20721;47.402;8.550;2023-06-19T02:50:08;96046;;;21.58;62.80
2711;BME280;20721;47.402;8.550;2023-06-19T02:52:08;96045;;;21.59;63.13
2711;BME280;20721;47.402;8.550;2023-06-19T02:53:08;96047;;;21.58;63.31
2711;BME280;20721;47.402;8.550;2023-06-19T02:54:08;96047;;;21.55;62.91
2711;BME280;20721;47.402;8.550;2023-06-19T02:55:08;96050;;;21.50;62.29
2711;BME280;20721;47.402;8.550;2023-06-19T02:56:08;96045;;;21.49;62.67
2711;BME280;20721;47.402;8.550;2023-06-19T02:57:09;96052;;;21.43;63.02
2711;BME280;20721;47.402;8.550;2023-06-19T02:58:08;96051;;;21.41;63.31
2711;BME280;20721;47.402;8.550;2023-06-19T02:59:08;96052;;;21.42;63.23
2711;BME280;20721;47.402;8.550;2023-06-19T03:00:10;96053;;;21.44;63.67
2711;BME280;20721;47.402;8.550;2023-06-19T03:01:08;96053;;;21.46;64.14
2711;BME280;20721;47.402;8.550;2023-06-19T03:03:08;96054;;;21.36;62.46
2711;BME280;20721;47.402;8.550;2023-06-19T03:04:08;96053;;;21.26;62.85
2711;BME280;20721;47.402;8.550;2023-06-19T03:05:08;96053;;;21.21;63.55
2711;BME280;20721;47.402;8.550;2023-06-19T03:06:08;96050;;;21.14;63.85
2711;BME280;20721;47.402;8.550;2023-06-19T03:07:08;96048;;;21.10;63.74
2711;BME280;20721;47.402;8.550;2023-06-19T03:08:08;96046;;;21.09;64.00
2711;BME280;20721;47.402;8.550;2023-06-19T03:09:12;96038;;;20.92;63.07
2711;BME280;20721;47.402;8.550;2023-06-19T03:10:08;96037;;;20.88;63.39
2711;BME280;20721;47.402;8.550;2023-06-19T03:11:08;96036;;;20.89;63.89
2711;BME280;20721;47.402;8.550;2023-06-19T03:12:08;96037;;;20.90;64.37
2711;BME280;20721;47.402;8.550;2023-06-19T03:13:08;96041;;;20.93;64.86
2711;BME280;20721;47.402;8.550;2023-06-19T03:15:08;96048;;;20.96;66.62
2711;BME280;20721;47.402;8.550;2023-06-19T03:16:08;96057;;;21.04;66.78
2711;BME280;20721;47.402;8.550;2023-06-19T03:17:08;96064;;;21.11;65.45
2711;BME280;20721;47.402;8.550;2023-06-19T03:18:10;96071;;;21.17;64.92
2711;BME280;20721;47.402;8.550;2023-06-19T03:19:08;96075;;;21.24;65.10
2711;BME280;20721;47.402;8.550;2023-06-19T03:20:11;96074;;;21.31;65.26
2711;BME280;20721;47.402;8.550;2023-06-19T03:21:08;96077;;;21.37;64.85
2711;BME280;20721;47.402;8.550;2023-06-19T03:22:08;96079;;;21.41;64.46
2711;BME280;20721;47.402;8.550;2023-06-19T03:23:08;96081;;;21.43;64.68
2711;BME280;20721;47.402;8.550;2023-06-19T03:24:09;96079;;;21.38;64.20
2711;BME280;20721;47.402;8.550;2023-06-19T03:25:08;96082;;;21.35;64.16
2711;BME280;20721;47.402;8.550;2023-06-19T03:26:09;96080;;;21.25;64.73
2711;BME280;20721;47.402;8.550;2023-06-19T03:28:08;96087;;;21.27;65.67
2711;BME280;20721;47.402;8.550;2023-06-19T03:29:08;96087;;;21.25;65.52
2711;BME280;20721;47.402;8.550;2023-06-19T03:30:09;96088;;;21.21;64.84
2711;BME280;20721;47.402;8.550;2023-06-19T03:31:08;96083;;;21.15;64.80
2711;BME280;20721;47.402;8.550;2023-06-19T03:32:08;96080;;;21.03;64.72
2711;BME280;20721;47.402;8.550;2023-06-19T03:33:08;96079;;;21.00;65.78
2711;BME280;20721;47.402;8.550;2023-06-19T03:34:08;96078;;;20.97;65.35
2711;BME280;20721;47.402;8.550;2023-06-19T03:37:08;96092;;;21.05;67.78
2711;BME280;20721;47.402;8.550;2023-06-19T03:38:08;96095;;;21.13;67.92
2711;BME280;20721;47.402;8.550;2023-06-19T03:39:08;96094;;;21.23;67.14
2711;BME280;20721;47.402;8.550;2023-06-19T03:40:13;96093;;;21.29;66.84
2711;BME280;20721;47.402;8.550;2023-06-19T03:41:08;96093;;;21.36;67.12
2711;BME280;20721;47.402;8.550;2023-06-19T03:42:08;96089;;;21.27;65.39
2711;BME280;20721;47.402;8.550;2023-06-19T03:43:08;96092;;;21.15;65.36
2711;BME280;20721;47.402;8.550;2023-06-19T03:44:08;96094;;;21.13;65.33
2711;BME280;20721;47.402;8.550;2023-06-19T03:45:08;96095;;;21.12;65.78
2711;BME280;20721;47.402;8.550;2023-06-19T03:46:08;96090;;;21.14;65.82
2711;BME280;20721;47.402;8.550;2023-06-19T03:47:08;96086;;;21.15;66.27
2711;BME280;20721;47.402;8.550;2023-06-19T03:48:09;96085;;;21.19;67.03
2711;BME280;20721;47.402;8.550;2023-06-19T03:49:09;96087;;;21.20;66.33
2711;BME280;20721;47.402;8.550;2023-06-19T03:51:08;96091;;;21.22;66.20
2711;BME280;20721;47.402;8.550;2023-06-19T03:53:08;96093;;;21.23;65.62
2711;BME280;20721;47.402;8.550;2023-06-19T03:54:08;96093;;;21.20;65.07
2711;BME280;20721;47.402;8.550;2023-06-19T03:55:08;96098;;;21.08;64.91
2711;BME280;20721;47.402;8.550;2023-06-19T03:56:08;96100;;;20.96;65.65
2711;BME280;20721;47.402;8.550;2023-06-19T03:57:08;96099;;;20.91;66.24
2711;BME280;20721;47.402;8.550;2023-06-19T03:58:08;96100;;;20.84;66.86
2711;BME280;20721;47.402;8.550;2023-06-19T03:59:08;96104;;;20.81;66.83
2711;BME280;20721;47.402;8.550;2023-06-19T04:00:11;96111;;;20.85;67.00
2711;BME280;20721;47.402;8.550;2023-06-19T04:01:08;96108;;;20.93;67.79
2711;BME280;20721;47.402;8.550;2023-06-19T04:02:08;96109;;;21.00;67.46
2711;BME280;20721;47.402;8.550;2023-06-19T04:03:09;96111;;;21.09;67.92
2711;BME280;20721;47.402;8.550;2023-06-19T04:04:08;96111;;;21.15;67.94
2711;BME280;20721;47.402;8.550;2023-06-19T04:05:08;96112;;;21.23;67.91
2711;BME280;20721;47.402;8.550;2023-06-19T04:06:08;96117;;;21.26;67.07
2711;BME280;20721;47.402;8.550;2023-06-19T04:07:08;96118;;;21.28;66.53
2711;BME280;20721;47.402;8.550;2023-06-19T04:08:08;96118;;;21.30;65.36
2711;BME280;20721;47.402;8.550;2023-06-19T04:09:09;96119;;;21.31;65.79
2711;BME280;20721;47.402;8.550;2023-06-19T04:10:09;96122;;;21.33;65.56
2711;BME280;20721;47.402;8.550;2023-06-19T04:11:08;96128;;;21.26;64.61
2711;BME280;20721;47.402;8.550;2023-06-19T04:13:08;96127;;;21.30;66.15
2711;BME280;20721;47.402;8.550;2023-06-19T04:14:09;96129;;;21.34;65.36
2711;BME280;20721;47.402;8.550;2023-06-19T04:15:08;96134;;;21.33;65.06
2711;BME280;20721;47.402;8.550;2023-06-19T04:16:08;96138;;;21.35;65.49
2711;BME280;20721;47.402;8.550;2023-06-19T04:17:08;96144;;;21.38;66.56
2711;BME280;20721;47.402;8.550;2023-06-19T04:18:08;96147;;;21.43;66.67
2711;BME280;20721;47.402;8.550;2023-06-19T04:19:08;96144;;;21.42;66.02
2711;BME280;20721;47.402;8.550;2023-06-19T04:20:11;96141;;;21.38;66.24
2711;BME280;20721;47.402;8.550;2023-06-19T04:21:08;96142;;;21.24;67.43
2711;BME280;20721;47.402;8.550;2023-06-19T04:22:09;96148;;;21.20;67.72
2711;BME280;20721;47.402;8.550;2023-06-19T04:24:09;96157;;;21.23;67.72
2711;BME280;20721;47.402;8.550;2023-06-19T04:25:09;96152;;;21.26;67.16
2711;BME280;20721;47.402;8.550;2023-06-19T04:26:08;96155;;;21.31;67.73
2711;BME280;20721;47.402;8.550;2023-06-19T04:27:08;96160;;;21.37;68.64
2711;BME280;20721;47.402;8.550;2023-06-19T04:28:08;96157;;;21.42;68.63
2711;BME280;20721;47.402;8.550;2023-06-19T04:29:16;96154;;;21.45;68.49
2711;BME280;20721;47.402;8.550;2023-06-19T04:31:08;96144;;;21.46;67.50
2711;BME280;20721;47.402;8.550;2023-06-19T04:34:08;96141;;;21.40;67.27
2711;BME280;20721;47.402;8.550;2023-06-19T04:35:09;96140;;;21.29;66.89
2711;BME280;20721;47.402;8.550;2023-06-19T04:36:09;96144;;;21.24;66.89
2711;BME280;20721;47.402;8.550;2023-06-19T04:37:08;96140;;;21.22;67.03
2711;BME280;20721;47.402;8.550;2023-06-19T04:38:09;96149;;;21.05;67.58
2711;BME280;20721;47.402;8.550;2023-06-19T04:39:09;96146;;;20.96;67.28
2711;BME280;20721;47.402;8.550;2023-06-19T04:40:09;96141;;;20.91;68.21
2711;BME280;20721;47.402;8.550;2023-06-19T04:41:08;96150;;;20.89;68.75
2711;BME280;20721;47.402;8.550;2023-06-19T04:42:08;96142;;;20.85;68.89
2711;BME280;20721;47.402;8.550;2023-06-19T04:43:08;96138;;;20.80;68.88
2711;BME280;20721;47.402;8.550;2023-06-19T04:44:09;96140;;;20.78;69.09
2711;BME280;20721;47.402;8.550;2023-06-19T04:45:09;96137;;;20.76;68.83
2711;BME280;20721;47.402;8.550;2023-06-19T04:46:08;96141;;;20.80;68.89
2711;BME280;20721;47.402;8.550;2023-06-19T04:47:08;96140;;;20.82;68.66
2711;BME280;20721;47.402;8.550;2023-06-19T04:48:08;96138;;;20.86;70.21
2711;BME280;20721;47.402;8.550;2023-06-19T04:49:09;96145;;;20.84;68.20
2711;BME280;20721;47.402;8.550;2023-06-19T04:50:09;96140;;;20.77;69.24
2711;BME280;20721;47.402;8.550;2023-06-19T04:51:08;96144;;;20.76;69.88
2711;BME280;20721;47.402;8.550;2023-06-19T04:52:08;96142;;;20.80;70.26
2711;BME280;20721;47.402;8.550;2023-06-19T04:53:08;96148;;;20.88;70.23
2711;BME280;20721;47.402;8.550;2023-06-19T04:54:08;96149;;;20.95;69.66
2711;BME280;20721;47.402;8.550;2023-06-19T04:55:09;96148;;;20.98;69.20
2711;BME280;20721;47.402;8.550;2023-06-19T04:56:08;96155;;;20.97;68.11
2711;BME280;20721;47.402;8.550;2023-06-19T04:57:09;96154;;;20.84;67.37
2711;BME280;20721;47.402;8.550;2023-06-19T04:58:08;96159;;;20.77;68.04
2711;BME280;20721;47.402;8.550;2023-06-19T04:59:08;96163;;;20.63;66.56
2711;BME280;20721;47.402;8.550;2023-06-19T05:00:10;96166;;;20.55;67.40
2711;BME280;20721;47.402;8.550;2023-06-19T05:01:10;96160;;;20.37;67.30
2711;BME280;20721;47.402;8.550;2023-06-19T05:02:08;96160;;;20.30;68.73
2711;BME280;20721;47.402;8.550;2023-06-19T05:03:09;96158;;;20.26;67.69
2711;BME280;20721;47.402;8.550;2023-06-19T05:04:10;96160;;;20.24;68.55
2711;BME280;20721;47.402;8.550;2023-06-19T05:05:09;96157;;;20.18;69.12
2711;BME280;20721;47.402;8.550;2023-06-19T05:06:08;96153;;;20.09;68.88
2711;BME280;20721;47.402;8.550;2023-06-19T05:07:10;96155;;;20.06;70.06
2711;BME280;20721;47.402;8.550;2023-06-19T05:08:09;96149;;;20.04;69.38
2711;BME280;20721;47.402;8.550;2023-06-19T05:09:08;96151;;;20.09;70.01
2711;BME280;20721;47.402;8.550;2023-06-19T05:10:09;96149;;;20.04;69.42
2711;BME280;20721;47.402;8.550;2023-06-19T05:11:08;96150;;;20.06;68.69
2711;BME280;20721;47.402;8.550;2023-06-19T05:12:09;96150;;;20.04;69.34
2711;BME280;20721;47.402;8.550;2023-06-19T05:13:09;96147;;;20.02;68.99
2711;BME280;20721;47.402;8.550;2023-06-19T05:14:08;96151;;;19.98;69.21
2711;BME280;20721;47.402;8.550;2023-06-19T05:15:09;96145;;;19.97;69.40
2711;BME280;20721;47.402;8.550;2023-06-19T05:16:09;96145;;;19.92;69.90
2711;BME280;20721;47.402;8.550;2023-06-19T05:17:09;96148;;;19.83;69.66
2711;BME280;20721;47.402;8.550;2023-06-19T05:19:09;96142;;;19.75;70.06
2711;BME280;20721;47.402;8.550;2023-06-19T05:20:09;96138;;;19.82;70.44
2711;BME280;20721;47.402;8.550;2023-06-19T05:21:08;96135;;;19.87;70.51
2711;BME280;20721;47.402;8.550;2023-06-19T05:22:09;96132;;;19.93;70.46
2711;BME280;20721;47.402;8.550;2023-06-19T05:23:09;96128;;;20.01;70.46
2711;BME280;20721;47.402;8.550;2023-06-19T05:24:09;96127;;;20.07;70.72
2711;BME280;20721;47.402;8.550;2023-06-19T05:25:09;96125;;;20.08;70.09
2711;BME280;20721;47.402;8.550;2023-06-19T05:26:09;96119;;;20.09;69.46
2711;BME280;20721;47.402;8.550;2023-06-19T05:27:08;96110;;;20.01;68.94
2711;BME280;20721;47.402;8.550;2023-06-19T05:28:09;96110;;;20.05;69.88
2711;BME280;20721;47.402;8.550;2023-06-19T05:29:09;96109;;;19.99;69.08
2711;BME280;20721;47.402;8.550;2023-06-19T05:31:09;96105;;;19.97;68.93
2711;BME280;20721;47.402;8.550;2023-06-19T05:32:09;96110;;;19.98;68.04
2711;BME280;20721;47.402;8.550;2023-06-19T05:33:09;96112;;;20.02;68.94
2711;BME280;20721;47.402;8.550;2023-06-19T05:34:09;96111;;;20.06;68.93
2711;BME280;20721;47.402;8.550;2023-06-19T05:35:09;96116;;;20.15;69.73
2711;BME280;20721;47.402;8.550;2023-06-19T05:37:09;96119;;;20.21;70.03
2711;BME280;20721;47.402;8.550;2023-06-19T05:38:09;96120;;;20.30;69.88
2711;BME280;20721;47.402;8.550;2023-06-19T05:39:09;96123;;;20.40;70.61
2711;BME280;20721;47.402;8.550;2023-06-19T05:40:09;96123;;;20.49;70.58
2711;BME280;20721;47.402;8.550;2023-06-19T05:41:09;96119;;;20.57;71.14
2711;BME280;20721;47.402;8.550;2023-06-19T05:42:09;96118;;;20.63;70.46
2711;BME280;20721;47.402;8.550;2023-06-19T05:43:09;96120;;;20.68;69.56
2711;BME280;20721;47.402;8.550;2023-06-19T05:44:09;96119;;;20.71;69.86
2711;BME280;20721;47.402;8.550;2023-06-19T05:45:09;96122;;;20.65;68.94
2711;BME280;20721;47.402;8.550;2023-06-19T05:46:09;96118;;;20.50;68.72
2711;BME280;20721;47.402;8.550;2023-06-19T05:47:09;96116;;;20.28;67.99
2711;BME280;20721;47.402;8.550;2023-06-19T05:49:09;96109;;;20.27;70.60
2711;BME280;20721;47.402;8.550;2023-06-19T05:50:09;96106;;;20.30;69.83
2711;BME280;20721;47.402;8.550;2023-06-19T05:51:09;96107;;;20.38;70.17
2711;BME280;20721;47.402;8.550;2023-06-19T05:52:09;96107;;;20.45;70.17
2711;BME280;20721;47.402;8.550;2023-06-19T05:53:09;96110;;;20.51;69.67
2711;BME280;20721;47.402;8.550;2023-06-19T05:54:09;96108;;;20.57;70.17
2711;BME280;20721;47.402;8.550;2023-06-19T05:55:09;96112;;;20.64;70.53
2711;BME280;20721;47.402;8.550;2023-06-19T05:56:09;96110;;;20.70;70.42
2711;BME280;20721;47.402;8.550;2023-06-19T05:57:09;96107;;;20.76;70.51
2711;BME280;20721;47.402;8.550;2023-06-19T05:58:09;96110;;;20.81;70.25
2711;BME280;20721;47.402;8.550;2023-06-19T05:59:09;96106;;;20.86;70.77
2711;BME280;20721;47.402;8.550;2023-06-19T06:00:13;96106;;;20.91;69.80
2711;BME280;20721;47.402;8.550;2023-06-19T06:01:09;96100;;;20.94;70.12
2711;BME280;20721;47.402;8.550;2023-06-19T06:02:09;96103;;;20.98;70.15
2711;BME280;20721;47.402;8.550;2023-06-19T06:03:09;96099;;;21.03;68.92
2711;BME280;20721;47.402;8.550;2023-06-19T06:04:09;96095;;;21.06;68.71
2711;BME280;20721;47.402;8.550;2023-06-19T06:05:09;96095;;;21.09;69.07
2711;BME280;20721;47.402;8.550;2023-06-19T06:06:09;96093;;;21.10;68.68
2711;BME280;20721;47.402;8.550;2023-06-19T06:07:09;96093;;;21.05;67.97
2711;BME280;20721;47.402;8.550;2023-06-19T06:08:09;96091;;;21.02;68.49
2711;BME280;20721;47.402;8.550;2023-06-19T06:09:12;96092;;;21.01;69.18